Time;durP1;ratioP1;P1;durP2;ratioP2;P2;SDS_P1;SDS_P2;PMS_P1;PMS_P2;Temp;Humidity;BMP_temperature;BMP_pressure;BME280_temperature;BME280_humidity;BME280_pressure;Samples;Min_cycle;Max_cycle;Signal;HPM_P1;HPM_P2
2023/07/13 00:01:13;;;;;;;2.53;2.30;;;16.60;99.90;;;;;;5046532;28;20465;-53
2023/07/13 00:03:40;;;;;;;7.70;2.83;;;16.70;99.90;;;;;;5051145;28;20493;-53
2023/07/13 00:06:08;;;;;;;3.73;2.27;;;16.70;99.90;;;;;;5048649;28;21494;-53
2023/07/13 00:08:35;;;;;;;3.57;2.37;;;16.60;99.90;;;;;;5051697;28;20486;-53
2023/07/13 00:11:03;;;;;;;7.13;2.20;;;16.60;99.90;;;;;;5045669;28;21022;-53
2023/07/13 00:13:30;;;;;;;2.00;1.77;;;16.60;99.90;;;;;;5050199;28;20967;-53
2023/07/13 00:15:59;;;;;;;4.33;1.97;;;16.60;93.50;;;;;;5051571;28;20462;-54
2023/07/13 00:18:25;;;;;;;2.53;2.20;;;16.60;95.20;;;;;;5050498;28;20835;-53
2023/07/13 00:20:52;;;;;;;6.27;2.40;;;16.60;95.20;;;;;;5045483;28;20545;-53
2023/07/13 00:23:18;;;;;;;2.23;2.00;;;16.60;95.20;;;;;;5048152;28;20513;-54
2023/07/13 00:25:45;;;;;;;2.67;2.17;;;16.50;83.80;;;;;;5048958;28;20490;-53
2023/07/13 00:28:12;;;;;;;10.53;2.50;;;16.50;99.90;;;;;;5047493;28;20508;-54
2023/07/13 00:30:38;;;;;;;6.57;2.50;;;16.50;91.30;;;;;;5044462;28;20521;-53
2023/07/13 00:33:07;;;;;;;2.07;1.97;;;16.40;93.50;;;;;;5043312;28;20941;-55
2023/07/13 00:35:34;;;;;;;5.63;2.30;;;16.40;94.20;;;;;;5048598;28;20478;-53
2023/07/13 00:38:01;;;;;;;7.60;2.63;;;16.30;85.00;;;;;;5050105;28;20529;-53
2023/07/13 00:40:28;;;;;;;2.80;2.30;;;16.20;82.80;;;;;;5050557;28;20573;-53
2023/07/13 00:42:57;;;;;;;2.83;2.00;;;16.20;78.70;;;;;;5051583;28;20490;-54
2023/07/13 00:46:01;;;;;;;2.57;1.93;;;16.10;73.30;;;;;;5049498;28;20510;-53
2023/07/13 00:48:34;;;;;;;4.93;2.43;;;16.10;74.20;;;;;;5044334;28;20553;-53
2023/07/13 00:51:02;;;;;;;2.90;2.23;;;16.10;72.20;;;;;;5045486;28;20571;-53
2023/07/13 00:53:32;;;;;;;2.83;2.20;;;16.00;76.50;;;;;;5046293;28;20905;-53
2023/07/13 00:55:59;;;;;;;5.10;2.03;;;15.90;68.20;;;;;;5050104;28;20513;-54
2023/07/13 00:58:27;;;;;;;3.90;2.60;;;15.90;70.20;;;;;;5050907;28;21821;-53
2023/07/13 01:00:54;;;;;;;2.53;2.30;;;15.80;63.00;;;;;;5049200;28;20461;-54
2023/07/13 01:03:21;;;;;;;2.47;1.97;;;15.80;59.90;;;;;;5048896;28;20466;-53
2023/07/13 01:05:51;;;;;;;6.50;2.77;;;15.80;61.20;;;;;;5044573;28;21013;-53
2023/07/13 01:08:18;;;;;;;3.30;2.50;;;15.80;53.00;;;;;;5049865;28;20462;-54
2023/07/13 01:10:52;;;;;;;4.10;2.70;;;15.70;57.90;;;;;;5047817;28;20876;-53
2023/07/13 01:13:19;;;;;;;5.40;2.67;;;15.70;57.60;;;;;;5046898;28;20544;-54
2023/07/13 01:15:48;;;;;;;5.53;2.10;;;15.70;59.60;;;;;;5047846;28;20481;-53
2023/07/13 01:18:18;;;;;;;3.33;2.30;;;15.60;56.60;;;;;;5051429;28;20544;-52
2023/07/13 01:20:52;;;;;;;3.83;2.67;;;15.60;57.10;;;;;;5045821;28;20560;-53
2023/07/13 01:23:19;;;;;;;5.43;2.10;;;15.60;52.60;;;;;;5038582;28;20462;-55
2023/07/13 01:25:46;;;;;;;2.20;1.97;;;15.50;50.00;;;;;;5044181;28;20481;-53
2023/07/13 01:28:12;;;;;;;2.60;1.90;;;15.50;46.40;;;;;;5049350;28;20576;-53
2023/07/13 01:30:40;;;;;;;6.80;2.37;;;15.50;42.50;;;;;;5045126;28;20544;-54
2023/07/13 01:33:07;;;;;;;4.97;2.63;;;15.50;46.50;;;;;;5049163;28;20494;-54
2023/07/13 01:35:33;;;;;;;5.90;2.50;;;15.50;39.50;;;;;;5048527;28;20564;-54
2023/07/13 01:38:02;;;;;;;12.60;2.70;;;15.50;41.50;;;;;;5045407;28;20562;-54
2023/07/13 01:40:30;;;;;;;4.70;2.50;;;15.40;43.10;;;;;;5047045;28;20484;-54
2023/07/13 01:42:56;;;;;;;4.47;2.50;;;15.40;37.80;;;;;;5045287;28;20544;-54
2023/07/13 01:45:23;;;;;;;2.50;2.30;;;15.30;42.40;;;;;;5049351;28;20505;-54
2023/07/13 01:47:49;;;;;;;6.53;2.83;;;15.40;41.00;;;;;;5049831;28;20868;-54
2023/07/13 01:50:16;;;;;;;2.47;2.27;;;15.30;44.10;;;;;;5047148;28;21022;-54
2023/07/13 01:52:43;;;;;;;2.40;2.20;;;15.30;42.30;;;;;;5043658;28;20969;-54
2023/07/13 01:55:11;;;;;;;6.67;2.77;;;15.20;37.90;;;;;;5045198;28;20557;-54
2023/07/13 01:57:37;;;;;;;5.33;2.40;;;15.20;35.40;;;;;;5037649;28;20544;-54
2023/07/13 02:00:07;;;;;;;3.53;3.13;;;15.20;34.80;;;;;;5047527;28;20474;-54
2023/07/13 02:02:33;;;;;;;3.67;2.67;;;15.20;36.90;;;;;;5049598;28;20589;-54
2023/07/13 02:05:00;;;;;;;9.73;2.47;;;15.20;34.70;;;;;;5045561;28;20570;-54
2023/07/13 02:07:26;;;;;;;3.73;2.60;;;15.10;34.80;;;;;;5049589;28;20466;-54
2023/07/13 02:09:53;;;;;;;4.23;2.37;;;15.20;30.00;;;;;;5048007;28;20549;-54
2023/07/13 02:12:21;;;;;;;3.63;2.60;;;15.20;30.50;;;;;;5051151;28;20528;-54
2023/07/13 02:14:48;;;;;;;2.40;2.20;;;15.00;30.10;;;;;;5048238;28;20513;-53
2023/07/13 02:17:15;;;;;;;3.53;2.77;;;15.00;25.20;;;;;;5046420;28;20461;-54
2023/07/13 02:19:41;;;;;;;6.97;2.80;;;15.00;93.10;;;;;;5049217;28;20930;-54
2023/07/13 02:22:08;;;;;;;3.47;2.93;;;15.00;25.90;;;;;;5049157;28;20496;-54
2023/07/13 02:27:02;;;;;;;3.23;2.50;;;14.90;30.80;;;;;;5059287;28;20828;-54
2023/07/13 02:29:30;;;;;;;2.90;2.30;;;14.80;25.40;;;;;;5066773;28;20897;-52
2023/07/13 02:31:56;;;;;;;2.80;2.50;;;14.90;26.30;;;;;;5064404;28;20481;-53
2023/07/13 02:34:23;;;;;;;4.10;2.87;;;14.90;24.90;;;;;;5062991;28;20500;-52
2023/07/13 02:36:49;;;;;;;10.00;3.87;;;14.90;25.70;;;;;;5063681;28;20505;-52
2023/07/13 02:39:16;;;;;;;6.67;2.63;;;15.00;24.90;;;;;;5060498;28;20915;-52
2023/07/13 02:41:43;;;;;;;3.93;2.30;;;15.00;25.70;;;;;;5059096;28;20485;-54
2023/07/13 02:44:09;;;;;;;3.07;2.60;;;15.00;26.20;;;;;;5065760;28;20493;-53
2023/07/13 02:46:38;;;;;;;5.90;2.63;;;15.00;23.50;;;;;;5060763;28;21004;-54
2023/07/13 02:49:05;;;;;;;6.53;2.63;;;15.00;23.20;;;;;;5064618;28;20831;-53
2023/07/13 02:51:33;;;;;;;6.10;3.20;;;15.00;20.90;;;;;;5059418;28;20508;-53
2023/07/13 02:54:00;;;;;;;4.03;3.37;;;15.00;74.20;;;;;;5065526;28;20458;-53
2023/07/13 02:56:31;;;;;;;3.73;3.10;;;15.00;21.60;;;;;;5060596;28;20944;-52
2023/07/13 02:58:57;;;;;;;3.10;2.80;;;15.00;84.10;;;;;;5063291;28;20449;-53
2023/07/13 03:01:24;;;;;;;4.73;2.87;;;14.90;85.60;;;;;;5060740;28;20513;-55
2023/07/13 03:03:53;;;;;;;7.50;2.77;;;14.90;77.70;;;;;;5061796;28;20896;-52
2023/07/13 03:06:21;;;;;;;8.10;3.30;;;14.80;83.30;;;;;;5060928;28;21043;-52
2023/07/13 03:08:48;;;;;;;2.50;2.10;;;14.80;99.90;;;;;;5063967;28;20488;-52
2023/07/13 03:11:17;;;;;;;2.80;2.60;;;14.90;99.90;;;;;;5066639;28;20492;-53
2023/07/13 03:13:43;;;;;;;2.77;2.47;;;14.90;85.30;;;;;;5063732;28;20544;-53
2023/07/13 03:16:11;;;;;;;5.47;2.60;;;14.80;20.50;;;;;;5069678;28;20523;-52
2023/07/13 03:18:38;;;;;;;6.93;2.80;;;14.70;99.90;;;;;;5071845;28;20452;-52
2023/07/13 03:21:07;;;;;;;5.70;2.80;;;14.70;99.90;;;;;;5062255;28;20590;-52
2023/07/13 03:23:33;;;;;;;3.33;2.90;;;14.70;99.90;;;;;;5059111;28;20503;-52
2023/07/13 03:26:05;;;;;;;3.70;3.10;;;14.70;99.90;;;;;;5066335;28;20540;-52
2023/07/13 03:28:32;;;;;;;2.73;2.43;;;14.60;99.90;;;;;;5065274;28;20560;-51
2023/07/13 03:31:03;;;;;;;4.77;3.17;;;14.60;99.90;;;;;;5058155;28;20449;-52
2023/07/13 03:33:30;;;;;;;3.57;3.00;;;14.60;99.90;;;;;;5063943;28;20454;-53
2023/07/13 03:35:57;;;;;;;5.20;3.10;;;14.60;99.90;;;;;;5061527;28;20504;-52
2023/07/13 03:38:26;;;;;;;3.23;2.20;;;14.60;99.90;;;;;;5063765;28;20543;-51
2023/07/13 03:40:52;;;;;;;3.03;2.67;;;14.60;99.90;;;;;;5062066;28;20476;-54
2023/07/13 03:43:20;;;;;;;5.23;2.60;;;14.60;99.90;;;;;;5056295;28;20538;-52
2023/07/13 03:45:46;;;;;;;5.63;2.40;;;14.60;99.90;;;;;;5064715;28;20476;-51
2023/07/13 03:48:13;;;;;;;3.90;3.10;;;14.70;99.90;;;;;;5060764;28;20557;-54
2023/07/13 03:50:40;;;;;;;4.23;2.50;;;14.70;99.90;;;;;;5066036;28;20493;-52
2023/07/13 03:53:06;;;;;;;6.03;2.87;;;14.70;99.90;;;;;;5070331;28;21202;-52
2023/07/13 03:55:34;;;;;;;6.70;3.23;;;14.70;99.90;;;;;;5070240;28;20505;-54
2023/07/13 03:58:22;;;;;;;4.10;2.80;;;14.70;99.90;;;;;;5066839;28;20901;-54
2023/07/13 04:00:50;;;;;;;2.60;2.40;;;14.80;99.90;;;;;;5063250;28;20597;-54
2023/07/13 04:03:16;;;;;;;7.60;2.63;;;14.80;99.90;;;;;;5071426;28;20904;-52
2023/07/13 04:05:43;;;;;;;6.63;2.40;;;14.90;99.90;;;;;;5060967;28;20504;-52
2023/07/13 04:08:10;;;;;;;3.80;2.60;;;15.00;99.90;;;;;;5066978;28;20489;-52
2023/07/13 04:10:38;;;;;;;3.07;2.73;;;15.00;99.90;;;;;;5067958;28;20464;-51
2023/07/13 04:13:05;;;;;;;2.77;2.43;;;15.10;99.90;;;;;;5068438;28;20460;-53
2023/07/13 04:15:33;;;;;;;4.57;2.43;;;15.10;99.90;;;;;;5060213;28;20517;-54
2023/07/13 04:17:59;;;;;;;1.93;1.80;;;15.20;93.90;;;;;;5070748;28;20877;-52
2023/07/13 04:20:26;;;;;;;3.90;3.47;;;15.20;77.90;;;;;;5068990;28;20612;-54
2023/07/13 04:22:53;;;;;;;4.53;2.90;;;15.30;20.90;;;;;;5068669;28;20534;-53
2023/07/13 04:25:21;;;;;;;5.47;3.10;;;15.30;95.00;;;;;;5059820;28;20576;-53
2023/07/13 04:27:50;;;;;;;3.67;3.30;;;15.30;75.90;;;;;;5067968;28;20894;-53
2023/07/13 04:30:16;;;;;;;2.33;2.07;;;15.40;20.70;;;;;;5063060;28;20537;-53
2023/07/13 04:32:43;;;;;;;7.20;3.10;;;15.40;22.40;;;;;;5061888;28;20504;-53
2023/07/13 04:35:10;;;;;;;3.73;2.57;;;15.50;22.60;;;;;;5057971;28;20532;-53
2023/07/13 04:37:37;;;;;;;7.40;2.90;;;15.50;21.80;;;;;;5063219;28;20492;-53
2023/07/13 04:40:04;;;;;;;6.10;2.83;;;15.60;25.10;;;;;;5066388;28;20480;-52
2023/07/13 04:42:31;;;;;;;4.67;3.00;;;15.60;25.10;;;;;;5066257;28;20493;-53
2023/07/13 04:44:59;;;;;;;4.13;2.50;;;15.70;29.80;;;;;;5061287;28;20554;-53
2023/07/13 04:47:25;;;;;;;5.60;2.90;;;15.70;33.70;;;;;;5067496;28;20497;-53
2023/07/13 04:49:52;;;;;;;3.53;3.10;;;15.80;36.40;;;;;;5053934;28;20553;-53
2023/07/13 04:52:22;;;;;;;3.10;2.33;;;15.80;35.60;;;;;;5063318;28;20538;-54
2023/07/13 04:54:48;;;;;;;7.10;2.63;;;15.90;37.90;;;;;;5059287;28;20548;-53
2023/07/13 04:57:15;;;;;;;6.80;2.47;;;15.90;37.90;;;;;;5062261;28;20493;-53
2023/07/13 04:59:42;;;;;;;2.80;2.20;;;16.00;39.10;;;;;;5066199;28;20460;-54
2023/07/13 05:02:11;;;;;;;5.17;2.70;;;16.10;39.80;;;;;;5061646;28;20485;-54
2023/07/13 05:04:37;;;;;;;4.90;3.10;;;16.10;41.20;;;;;;5062270;28;20583;-51
2023/07/13 05:07:05;;;;;;;7.03;2.50;;;16.10;44.10;;;;;;5057168;28;20485;-52
2023/07/13 05:09:31;;;;;;;6.10;3.40;;;16.20;45.10;;;;;;5056429;28;20538;-52
2023/07/13 05:11:58;;;;;;;2.97;2.73;;;16.30;44.50;;;;;;5055620;28;20939;-53
2023/07/13 05:14:24;;;;;;;5.47;2.83;;;16.40;45.30;;;;;;5059838;28;20489;-53
2023/07/13 05:16:51;;;;;;;4.50;3.00;;;16.50;46.10;;;;;;5058803;28;20564;-54
2023/07/13 05:19:19;;;;;;;7.93;3.90;;;16.50;49.30;;;;;;5059004;28;20485;-52
2023/07/13 05:21:45;;;;;;;4.37;2.57;;;16.60;49.20;;;;;;5057914;28;20571;-52
2023/07/13 05:24:12;;;;;;;4.07;3.00;;;16.60;51.40;;;;;;5059268;28;20497;-52
2023/07/13 05:26:39;;;;;;;4.00;2.53;;;16.70;51.90;;;;;;5062861;28;20489;-52
2023/07/13 05:29:06;;;;;;;6.40;2.53;;;16.80;53.20;;;;;;5066705;28;20581;-52
2023/07/13 05:31:33;;;;;;;7.37;2.60;;;16.90;51.40;;;;;;5064012;28;20835;-55
2023/07/13 05:33:59;;;;;;;2.40;2.20;;;17.00;52.20;;;;;;5062900;28;20456;-52
2023/07/13 05:36:28;;;;;;;5.13;2.60;;;17.00;52.20;;;;;;5057645;28;20543;-52
2023/07/13 05:38:55;;;;;;;4.20;3.10;;;17.10;53.60;;;;;;5060219;28;20457;-52
2023/07/13 05:41:22;;;;;;;5.80;3.07;;;17.20;57.80;;;;;;5059160;28;20488;-53
2023/07/13 05:43:49;;;;;;;5.97;2.50;;;17.30;61.90;;;;;;5065934;28;20465;-52
2023/07/13 05:46:16;;;;;;;5.43;2.27;;;17.40;60.90;;;;;;5065808;28;20591;-52
2023/07/13 05:48:43;;;;;;;4.03;2.60;;;17.50;64.20;;;;;;5066342;28;20461;-51
2023/07/13 05:51:10;;;;;;;4.30;3.10;;;17.50;65.50;;;;;;5066254;28;20453;-51
2023/07/13 05:53:39;;;;;;;3.50;2.13;;;17.60;75.40;;;;;;5062609;28;20510;-54
2023/07/13 05:56:06;;;;;;;4.77;2.87;;;17.70;78.20;;;;;;5058034;28;20481;-55
2023/07/13 05:58:32;;;;;;;8.30;2.60;;;17.80;81.00;;;;;;5061504;28;20504;-55
2023/07/13 06:01:01;;;;;;;4.27;2.20;;;17.90;89.40;;;;;;5059532;28;20485;-54
2023/07/13 06:03:28;;;;;;;3.53;2.30;;;17.90;93.20;;;;;;5058572;28;20835;-55
2023/07/13 06:05:54;;;;;;;11.10;2.53;;;18.00;94.00;;;;;;5053243;28;20504;-53
2023/07/13 06:08:21;;;;;;;3.10;2.40;;;18.10;93.10;;;;;;5068389;28;20461;-55
2023/07/13 06:10:49;;;;;;;3.73;2.00;;;18.20;91.90;;;;;;5069110;28;20492;-55
2023/07/13 06:13:15;;;;;;;4.50;1.93;;;18.30;94.80;;;;;;5063173;28;20485;-55
2023/07/13 06:15:42;;;;;;;6.07;2.30;;;18.40;95.90;;;;;;5059014;28;20920;-55
2023/07/13 06:18:08;;;;;;;4.20;2.20;;;18.50;99.90;;;;;;5061986;28;20500;-54
2023/07/13 06:20:35;;;;;;;7.13;2.30;;;18.60;99.90;;;;;;5063145;28;21015;-55
2023/07/13 06:23:02;;;;;;;4.43;2.07;;;18.70;99.90;;;;;;5067208;28;20493;-54
2023/07/13 06:25:29;;;;;;;5.67;2.50;;;18.80;99.90;;;;;;5054991;28;20523;-56
2023/07/13 06:27:57;;;;;;;3.70;2.57;;;18.90;99.90;;;;;;5063487;28;20497;-55
2023/07/13 06:30:23;;;;;;;6.27;1.93;;;19.00;99.90;;;;;;5053814;28;20883;-54
2023/07/13 06:32:50;;;;;;;4.43;1.67;;;19.00;99.90;;;;;;5060954;28;20502;-56
2023/07/13 06:35:17;;;;;;;2.00;1.80;;;19.00;99.90;;;;;;5049420;28;20563;-54
2023/07/13 06:37:43;;;;;;;4.27;2.00;;;19.10;99.90;;;;;;5063227;28;20548;-56
2023/07/13 06:40:10;;;;;;;5.20;1.90;;;19.20;99.90;;;;;;5061713;28;20540;-54
2023/07/13 06:42:38;;;;;;;1.70;1.53;;;19.20;99.90;;;;;;5061632;28;21076;-55
2023/07/13 06:45:07;;;;;;;4.50;1.83;;;19.30;99.90;;;;;;5065731;28;20951;-54
2023/07/13 06:47:33;;;;;;;3.03;1.70;;;19.40;99.90;;;;;;5070092;28;20530;-55
2023/07/13 06:50:00;;;;;;;3.37;2.20;;;19.50;99.90;;;;;;5058267;28;20589;-54
2023/07/13 06:52:27;;;;;;;21.13;2.53;;;19.60;99.90;;;;;;5059548;28;20497;-54
2023/07/13 06:54:53;;;;;;;4.70;1.60;;;19.70;99.90;;;;;;5065314;28;20492;-56
2023/07/13 06:57:20;;;;;;;3.37;2.20;;;19.70;99.90;;;;;;5064419;28;20480;-55
2023/07/13 06:59:46;;;;;;;5.83;1.97;;;19.80;99.90;;;;;;5071295;28;20544;-56
2023/07/13 07:02:14;;;;;;;4.93;2.30;;;19.90;99.90;;;;;;5067473;28;20568;-56
2023/07/13 07:04:41;;;;;;;7.10;2.10;;;20.00;99.90;;;;;;5066897;28;20535;-54
2023/07/13 07:07:07;;;;;;;2.10;1.77;;;20.10;79.00;;;;;;5064618;28;20856;-55
2023/07/13 07:09:34;;;;;;;4.87;1.80;;;20.10;89.80;;;;;;5066218;28;20493;-55
2023/07/13 07:12:00;;;;;;;8.47;1.63;;;20.10;25.90;;;;;;5066407;28;20552;-55
2023/07/13 07:14:27;;;;;;;5.87;1.67;;;20.20;29.80;;;;;;5065062;28;20506;-55
2023/07/13 07:16:54;;;;;;;4.83;1.70;;;20.20;39.10;;;;;;5067231;28;20505;-55
2023/07/13 07:19:21;;;;;;;3.23;1.70;;;20.30;46.90;;;;;;5061001;28;20490;-55
2023/07/13 07:21:48;;;;;;;4.30;1.80;;;20.30;40.40;;;;;;5061166;28;20580;-55
2023/07/13 07:24:15;;;;;;;3.20;2.00;;;20.40;46.50;;;;;;5066101;28;20592;-54
2023/07/13 07:26:42;;;;;;;3.50;1.70;;;20.50;62.80;;;;;;5059945;28;20491;-55
2023/07/13 07:29:08;;;;;;;3.97;1.70;;;20.60;65.40;;;;;;5064369;28;20556;-54
2023/07/13 07:31:37;;;;;;;3.43;1.27;;;20.70;70.70;;;;;;5063088;28;20489;-55
2023/07/13 07:34:03;;;;;;;13.20;1.70;;;20.80;79.20;;;;;;5062748;28;20492;-55
2023/07/13 07:36:31;;;;;;;2.70;1.73;;;20.80;87.60;;;;;;5067554;28;20508;-58
2023/07/13 07:38:58;;;;;;;8.03;2.00;;;20.80;87.50;;;;;;5065430;28;20454;-54
2023/07/13 07:41:24;;;;;;;2.80;2.07;;;20.90;85.40;;;;;;5068606;28;21078;-54
2023/07/13 07:43:51;;;;;;;2.87;1.80;;;21.00;89.40;;;;;;5066260;28;20493;-54
2023/07/13 07:46:17;;;;;;;1.93;1.40;;;21.00;99.90;;;;;;5062768;28;20531;-54
2023/07/13 07:48:44;;;;;;;3.67;1.97;;;21.00;95.20;;;;;;5065719;28;20546;-54
2023/07/13 07:51:11;;;;;;;4.23;1.80;;;21.10;99.90;;;;;;5060876;28;21006;-54
2023/07/13 07:53:38;;;;;;;2.80;1.70;;;21.10;99.90;;;;;;5062670;28;20493;-54
2023/07/13 07:56:05;;;;;;;2.40;1.70;;;21.20;99.90;;;;;;5065918;28;20504;-55
2023/07/13 07:58:32;;;;;;;1.93;1.40;;;21.30;99.90;;;;;;5064725;28;20462;-53
2023/07/13 08:01:04;;;;;;;1.97;1.20;;;21.50;99.90;;;;;;5066316;28;20544;-54
2023/07/13 08:03:30;;;;;;;4.47;1.20;;;21.60;99.90;;;;;;5062244;28;20467;-54
2023/07/13 08:05:57;;;;;;;1.00;0.90;;;21.70;99.90;;;;;;5057112;28;20576;-53
2023/07/13 08:08:24;;;;;;;1.67;1.17;;;21.80;99.90;;;;;;5064682;28;21035;-53
2023/07/13 08:10:52;;;;;;;1.27;0.90;;;21.80;99.90;;;;;;5054704;28;20488;-53
2023/07/13 08:13:18;;;;;;;4.70;0.90;;;21.80;99.90;;;;;;5066672;28;20501;-53
2023/07/13 08:15:45;;;;;;;1.50;1.00;;;21.90;99.90;;;;;;5070197;28;20505;-53
2023/07/13 08:18:11;;;;;;;1.60;0.83;;;21.80;99.90;;;;;;5064378;28;20493;-54
2023/07/13 08:20:39;;;;;;;4.20;1.20;;;21.90;99.90;;;;;;5064163;28;20496;-53
2023/07/13 08:23:06;;;;;;;1.90;1.30;;;22.00;99.90;;;;;;5066640;28;20477;-54
2023/07/13 08:25:32;;;;;;;6.03;2.10;;;22.10;99.90;;;;;;5062648;28;21035;-52
2023/07/13 08:28:00;;;;;;;6.40;1.10;;;22.20;99.90;;;;;;5056348;28;20540;-51
2023/07/13 08:30:27;;;;;;;4.60;1.13;;;22.30;99.90;;;;;;5058953;28;20544;-52
2023/07/13 08:32:54;;;;;;;3.70;1.13;;;22.30;99.90;;;;;;5063471;28;20492;-53
2023/07/13 08:35:21;;;;;;;1.20;0.80;;;22.30;99.90;;;;;;5063610;28;20504;-53
2023/07/13 08:37:47;;;;;;;1.00;0.90;;;22.30;99.90;;;;;;5067198;28;20484;-51
2023/07/13 08:40:14;;;;;;;1.43;1.17;;;22.40;99.90;;;;;;5056794;28;20992;-52
2023/07/13 08:42:47;;;;;;;3.93;1.00;;;22.40;99.90;;;;;;5057921;28;20481;-53
2023/07/13 08:45:21;;;;;;;4.50;1.20;;;22.60;99.90;;;;;;5060344;28;20564;-52
2023/07/13 08:47:53;;;;;;;8.23;1.07;;;22.60;99.90;;;;;;5059003;28;20919;-52
2023/07/13 08:50:24;;;;;;;4.73;1.10;;;22.80;99.90;;;;;;5051775;28;20468;-52
2023/07/13 08:52:52;;;;;;;1.67;1.00;;;22.90;99.90;;;;;;5057082;28;20453;-52
2023/07/13 08:55:22;;;;;;;2.77;1.30;;;23.00;99.90;;;;;;5052013;28;20899;-51
2023/07/13 08:57:55;;;;;;;7.03;1.20;;;23.00;99.90;;;;;;5056671;28;20494;-51
2023/07/13 09:00:24;;;;;;;6.30;1.40;;;23.20;99.90;;;;;;5060580;28;20482;-51
2023/07/13 09:02:56;;;;;;;4.40;1.20;;;23.20;99.90;;;;;;5059226;28;21065;-53
2023/07/13 09:05:28;;;;;;;3.93;1.10;;;23.30;99.90;;;;;;5058193;28;20478;-51
2023/07/13 09:08:23;;;;;;;4.83;1.50;;;23.40;99.90;;;;;;5062134;28;20487;-52
2023/07/13 09:10:53;;;;;;;4.60;1.10;;;23.00;99.90;;;;;;5055155;28;20548;-52
2023/07/13 09:13:29;;;;;;;1.63;1.43;;;23.30;99.90;;;;;;5058576;28;20547;-52
2023/07/13 09:16:00;;;;;;;4.57;1.10;;;23.80;99.90;;;;;;5057471;28;20538;-51
2023/07/13 09:18:32;;;;;;;2.40;1.23;;;24.30;99.90;;;;;;5060301;28;21008;-52
2023/07/13 09:21:03;;;;;;;3.47;1.50;;;24.70;99.90;;;;;;5059637;28;20495;-52
2023/07/13 09:23:30;;;;;;;4.70;1.60;;;25.10;99.90;;;;;;5062554;28;20509;-51
2023/07/13 09:26:03;;;;;;;1.67;1.43;;;25.00;99.90;;;;;;5063155;28;20516;-51
2023/07/13 09:28:37;;;;;;;5.10;1.50;;;24.80;99.90;;;;;;5056340;28;20987;-51
2023/07/13 09:31:08;;;;;;;1.73;1.40;;;24.40;99.90;;;;;;5056363;28;20592;-52
2023/07/13 09:33:34;;;;;;;1.47;1.13;;;24.10;99.90;;;;;;5055355;28;20512;-52
2023/07/13 09:36:02;;;;;;;1.80;1.10;;;23.80;99.90;;;;;;5061464;28;22734;-52
2023/07/13 09:38:31;;;;;;;3.03;1.33;;;23.50;99.90;;;;;;5063709;28;20563;-52
2023/07/13 09:41:20;;;;;;;3.07;1.37;;;23.30;99.90;;;;;;5055275;28;20473;-52
2023/07/13 09:44:11;;;;;;;3.27;1.47;;;23.20;99.90;;;;;;5055797;28;20540;-52
2023/07/13 09:46:44;;;;;;;8.37;1.77;;;23.20;99.90;;;;;;5055575;28;21015;-51
2023/07/13 09:49:11;;;;;;;5.43;1.50;;;23.00;99.90;;;;;;5058173;28;20486;-51
2023/07/13 09:51:38;;;;;;;4.30;1.50;;;22.80;99.90;;;;;;5059316;28;20461;-51
2023/07/13 09:54:04;;;;;;;6.67;1.60;;;22.70;99.90;;;;;;5061112;28;20539;-51
2023/07/13 09:56:32;;;;;;;3.17;1.70;;;22.60;99.90;;;;;;5058207;28;20571;-52
2023/07/13 09:58:59;;;;;;;4.03;1.40;;;22.50;99.90;;;;;;5063499;28;20460;-52
2023/07/13 10:01:33;;;;;;;3.50;1.30;;;22.90;99.90;;;;;;5061330;28;20485;-51
2023/07/13 10:04:03;;;;;;;3.83;1.80;;;23.60;99.90;;;;;;5043879;28;20519;-52
2023/07/13 10:06:29;;;;;;;2.87;1.40;;;24.00;99.90;;;;;;5061489;28;21002;-53
2023/07/13 10:08:57;;;;;;;3.37;1.70;;;24.50;99.90;;;;;;5060558;28;20951;-53
2023/07/13 10:11:29;;;;;;;7.37;2.40;;;24.90;99.90;;;;;;5064946;28;20461;-53
2023/07/13 10:13:57;;;;;;;8.23;2.40;;;24.90;99.90;;;;;;5056115;28;20461;-52
2023/07/13 10:16:27;;;;;;;7.20;1.97;;;24.60;99.90;;;;;;5060641;28;20882;-52
2023/07/13 10:18:58;;;;;;;4.90;2.10;;;24.90;99.90;;;;;;5063074;28;20464;-52
2023/07/13 10:21:31;;;;;;;1.90;1.70;;;25.00;99.90;;;;;;5063488;28;20485;-52
2023/07/13 10:24:05;;;;;;;2.97;1.90;;;25.20;99.90;;;;;;5068005;28;20477;-53
2023/07/13 10:26:34;;;;;;;6.67;2.40;;;24.80;99.90;;;;;;5062002;28;20545;-52
2023/07/13 10:29:07;;;;;;;3.57;1.70;;;24.30;99.90;;;;;;5062275;28;20475;-52
2023/07/13 10:31:35;;;;;;;6.57;2.60;;;24.00;99.90;;;;;;5059808;28;20457;-52
2023/07/13 10:34:02;;;;;;;5.30;2.57;;;23.80;99.90;;;;;;5060349;28;20489;-51
2023/07/13 10:36:34;;;;;;;2.50;1.37;;;23.70;99.90;;;;;;5062777;28;20524;-52
2023/07/13 10:39:04;;;;;;;5.37;1.73;;;23.60;99.90;;;;;;5060349;28;20449;-51
2023/07/13 10:41:35;;;;;;;3.70;1.97;;;23.60;99.90;;;;;;5059301;28;20544;-51
2023/07/13 10:44:03;;;;;;;3.83;1.83;;;23.70;99.90;;;;;;5059040;28;20555;-52
2023/07/13 10:46:30;;;;;;;4.90;1.93;;;23.60;99.90;;;;;;5050968;28;20496;-52
2023/07/13 10:49:00;;;;;;;2.47;2.07;;;23.50;99.90;;;;;;5057770;28;20481;-52
2023/07/13 10:51:27;;;;;;;12.30;2.23;;;23.40;99.90;;;;;;5060175;28;20914;-51
2023/07/13 10:54:22;;;;;;;3.30;2.13;;;23.30;99.90;;;;;;5054615;28;21506;-52
2023/07/13 10:56:52;;;;;;;8.37;2.20;;;23.70;99.90;;;;;;5042818;28;20489;-53
2023/07/13 10:59:25;;;;;;;3.10;2.03;;;23.70;99.90;;;;;;5057109;28;20469;-53
2023/07/13 11:01:56;;;;;;;2.70;1.90;;;24.00;99.90;;;;;;5057998;28;20951;-51
2023/07/13 11:04:25;;;;;;;4.60;1.73;;;25.10;99.90;;;;;;5058213;28;20515;-52
2023/07/13 11:06:57;;;;;;;9.67;2.70;;;26.20;99.90;;;;;;5060862;28;20568;-52
2023/07/13 11:09:40;;;;;;;10.03;1.83;;;27.00;99.90;;;;;;5056823;28;20457;-53
2023/07/13 11:12:27;;;;;;;2.90;1.90;;;26.70;99.90;;;;;;5057679;28;21096;-52
2023/07/13 11:15:11;;;;;;;8.63;1.80;;;26.30;99.90;;;;;;5055619;28;20458;-51
2023/07/13 11:17:48;;;;;;;2.77;1.57;;;26.40;99.90;;;;;;5053852;28;20983;-52
2023/07/13 11:20:32;;;;;;;3.77;1.73;;;26.30;99.90;;;;;;5063034;28;20456;-52
2023/07/13 11:23:10;;;;;;;8.63;2.00;;;26.20;99.90;;;;;;5054188;28;20474;-52
2023/07/13 11:25:38;;;;;;;2.50;1.93;;;26.20;99.90;;;;;;5053656;28;20571;-52
2023/07/13 11:28:13;;;;;;;2.77;1.63;;;25.90;99.90;;;;;;5055686;28;20515;-52
2023/07/13 11:30:43;;;;;;;4.57;1.93;;;25.60;99.90;;;;;;5061397;28;21009;-52
2023/07/13 11:33:15;;;;;;;16.13;2.10;;;25.30;99.90;;;;;;5059374;28;20987;-52
2023/07/13 11:35:47;;;;;;;3.83;1.90;;;24.90;99.90;;;;;;5061759;28;20520;-52
2023/07/13 11:38:19;;;;;;;10.53;2.20;;;24.60;99.90;;;;;;5066617;28;20457;-52
2023/07/13 11:40:49;;;;;;;2.07;1.80;;;24.50;99.90;;;;;;5064590;28;21034;-53
2023/07/13 11:43:17;;;;;;;3.70;1.93;;;24.80;99.90;;;;;;5061435;28;20564;-52
2023/07/13 11:45:44;;;;;;;5.00;1.30;;;25.00;99.90;;;;;;5062140;28;20991;-52
2023/07/13 11:48:25;;;;;;;2.70;2.07;;;25.40;99.90;;;;;;5066343;28;20548;-52
2023/07/13 11:50:55;;;;;;;3.23;1.67;;;25.90;99.90;;;;;;5063524;28;20496;-52
2023/07/13 11:53:22;;;;;;;3.40;1.87;;;26.10;99.90;;;;;;5062864;28;20489;-52
2023/07/13 11:55:50;;;;;;;5.50;2.07;;;26.00;99.90;;;;;;5059781;28;20508;-52
2023/07/13 11:58:21;;;;;;;5.60;2.30;;;26.10;99.90;;;;;;5063509;28;20463;-52
2023/07/13 12:00:49;;;;;;;6.30;2.00;;;26.30;99.90;;;;;;5065663;28;21039;-52
2023/07/13 12:03:21;;;;;;;2.50;1.50;;;26.00;99.90;;;;;;5066082;28;20925;-52
2023/07/13 12:06:01;;;;;;;8.70;2.20;;;25.30;99.90;;;;;;5066788;28;20525;-52
2023/07/13 12:08:28;;;;;;;1.57;1.33;;;25.20;99.90;;;;;;5071312;28;20500;-52
2023/07/13 12:11:01;;;;;;;7.80;2.17;;;25.40;99.90;;;;;;5071632;28;21153;-52
2023/07/13 12:13:29;;;;;;;11.47;3.00;;;25.20;99.90;;;;;;5062751;28;20540;-52
2023/07/13 12:15:57;;;;;;;9.13;2.33;;;25.00;99.90;;;;;;5069805;28;20477;-52
2023/07/13 12:18:29;;;;;;;4.50;1.97;;;25.00;99.90;;;;;;5068975;28;20489;-52
2023/07/13 12:20:59;;;;;;;5.70;2.20;;;24.80;99.90;;;;;;5071499;28;20463;-53
2023/07/13 12:23:28;;;;;;;4.23;2.40;;;24.70;99.90;;;;;;5072331;28;20481;-52
2023/07/13 12:25:56;;;;;;;8.40;2.40;;;24.60;99.90;;;;;;5065914;28;20516;-52
2023/07/13 12:28:33;;;;;;;5.50;2.93;;;24.50;99.90;;;;;;5067548;28;20998;-52
2023/07/13 12:31:01;;;;;;;3.17;2.33;;;24.20;99.90;;;;;;5066876;28;20551;-52
2023/07/13 12:33:30;;;;;;;2.10;1.70;;;24.20;99.90;;;;;;5068937;28;20462;-52
2023/07/13 12:35:57;;;;;;;3.97;2.33;;;24.10;99.90;;;;;;5065292;28;20464;-52
2023/07/13 12:38:26;;;;;;;7.43;2.60;;;24.10;99.90;;;;;;5072054;28;20468;-53
2023/07/13 12:40:54;;;;;;;2.80;2.17;;;24.40;99.90;;;;;;5067343;28;20499;-54
2023/07/13 12:43:22;;;;;;;6.33;2.17;;;24.60;99.90;;;;;;5066480;28;20921;-51
2023/07/13 12:45:58;;;;;;;3.57;2.60;;;25.30;99.90;;;;;;5063261;28;20515;-53
2023/07/13 12:48:25;;;;;;;2.33;2.13;;;26.20;99.90;;;;;;5064094;28;20556;-52
2023/07/13 12:50:55;;;;;;;3.47;2.23;;;27.00;99.90;;;;;;5062722;28;20534;-52
2023/07/13 12:53:24;;;;;;;5.33;2.67;;;27.20;99.90;;;;;;5066051;28;20518;-53
2023/07/13 12:55:54;;;;;;;8.20;2.30;;;26.80;99.90;;;;;;5065129;28;20534;-53